Time;durP1;ratioP1;P1;durP2;ratioP2;P2;SDS_P1;SDS_P2;PMS_P1;PMS_P2;Temp;Humidity;BMP_temperature;BMP_pressure;BME280_temperature;BME280_humidity;BME280_pressure;Samples;Min_cycle;Max_cycle;Signal;HPM_P1;HPM_P2
2020/12/20 00:02:37;;;;;;;94.83;46.20;;;;;;;-0.38;76.05;101115.58;2150700;82;27706;-65
2020/12/20 00:05:46;;;;;;;99.95;46.30;;;;;;;-0.39;76.01;101112.49;2137711;81;28877;-65
2020/12/20 00:12:07;;;;;;;75.13;39.03;;;;;;;-0.35;75.92;101112.97;2251833;77;35005;-66
2020/12/20 00:15:10;;;;;;;102.32;49.58;;;;;;;-0.40;75.88;101111.17;2187160;80;27535;-67
2020/12/20 00:18:14;;;;;;;60.65;28.80;;;;;;;-0.44;75.75;101105.02;2185575;80;28804;-69
2020/12/20 00:21:17;;;;;;;71.85;36.63;;;;;;;-0.41;75.79;101112.05;2178373;80;27810;-68
2020/12/20 00:24:20;;;;;;;74.87;31.07;;;;;;;-0.42;76.03;101110.28;2186224;80;33058;-69
2020/12/20 00:27:24;;;;;;;79.17;39.35;;;;;;;-0.43;76.20;101108.09;2217503;80;28562;-67
2020/12/20 00:30:26;;;;;;;78.55;36.65;;;;;;;-0.42;75.74;101111.17;2202132;80;27644;-69
2020/12/20 00:33:28;;;;;;;72.75;35.98;;;;;;;-0.46;75.82;101106.30;2180323;80;29264;-66
2020/12/20 00:36:31;;;;;;;73.92;37.73;;;;;;;-0.46;75.90;101112.01;2204706;80;31112;-66
2020/12/20 00:39:34;;;;;;;78.20;38.90;;;;;;;-0.47;75.96;101116.83;2217401;80;33190;-66
2020/12/20 00:42:38;;;;;;;62.60;33.30;;;;;;;-0.50;76.14;101112.42;2217431;80;29308;-67
2020/12/20 00:45:40;;;;;;;69.82;33.75;;;;;;;-0.50;76.24;101107.58;2182482;80;27752;-67
2020/12/20 00:48:43;;;;;;;87.80;44.60;;;;;;;-0.49;76.29;101108.03;2149177;81;28801;-67
2020/12/20 00:51:45;;;;;;;99.83;52.85;;;;;;;-0.49;76.33;101108.03;2187663;80;31147;-66
2020/12/20 00:54:48;;;;;;;100.10;50.50;;;;;;;-0.48;76.33;101103.21;2191156;80;33392;-66
2020/12/20 00:57:50;;;;;;;71.62;37.33;;;;;;;-0.49;76.26;101106.27;2178882;81;28926;-66
2020/12/20 01:00:52;;;;;;;83.15;46.73;;;;;;;-0.47;76.55;101102.34;2178644;80;27641;-65
2020/12/20 01:03:55;;;;;;;85.42;49.13;;;;;;;-0.47;76.62;101103.66;2182417;80;29741;-66
2020/12/20 01:06:58;;;;;;;71.75;37.83;;;;;;;-0.44;76.77;101106.75;2193300;80;32198;-67
2020/12/20 01:10:01;;;;;;;68.40;38.33;;;;;;;-0.44;76.74;101115.55;2210599;80;33150;-67
2020/12/20 01:13:04;;;;;;;52.38;28.65;;;;;;;-0.43;76.72;101109.41;2223963;80;29859;-66
2020/12/20 01:16:06;;;;;;;52.70;28.77;;;;;;;-0.43;76.55;101110.73;2224818;80;27748;-67
2020/12/20 01:19:09;;;;;;;49.38;26.80;;;;;;;-0.43;76.74;101107.20;2222306;80;28811;-68
2020/12/20 01:22:11;;;;;;;54.00;27.80;;;;;;;-0.42;76.79;101103.70;2195301;80;31191;-67
2020/12/20 01:25:14;;;;;;;46.20;25.72;;;;;;;-0.40;76.91;101104.59;2185099;81;33069;-67
2020/12/20 01:28:16;;;;;;;51.88;28.98;;;;;;;-0.42;77.16;101096.70;2163656;80;29788;-65
2020/12/20 01:31:18;;;;;;;47.35;24.75;;;;;;;-0.40;76.82;101097.56;2221901;80;27788;-67
2020/12/20 01:34:21;;;;;;;45.63;26.10;;;;;;;-0.37;76.69;101100.68;2223931;80;28797;-67
2020/12/20 01:37:23;;;;;;;56.40;27.50;;;;;;;-0.37;76.43;101100.23;2192025;80;30551;-68
2020/12/20 01:40:26;;;;;;;50.05;26.27;;;;;;;-0.41;76.26;101085.72;2186925;80;33195;-66
2020/12/20 01:43:47;;;;;;;51.73;26.50;;;;;;;-0.42;76.25;101088.80;2185311;80;28838;-67
2020/12/20 01:46:51;;;;;;;50.70;27.02;;;;;;;-0.44;75.97;101094.48;2185022;81;27733;-68
2020/12/20 01:49:55;;;;;;;50.43;27.20;;;;;;;-0.48;75.90;101085.66;2168882;80;29760;-67
2020/12/20 01:52:58;;;;;;;53.92;28.62;;;;;;;-0.50;75.82;101087.42;2195654;80;31107;-67
2020/12/20 01:56:02;;;;;;;55.23;26.50;;;;;;;-0.54;75.72;101089.57;2223909;80;33092;-68
2020/12/20 01:59:05;;;;;;;75.00;32.85;;;;;;;-0.57;75.77;101089.95;2224208;80;29857;-68
2020/12/20 02:02:08;;;;;;;73.97;31.40;;;;;;;-0.59;75.90;101100.93;2189671;78;27628;-67
2020/12/20 02:05:11;;;;;;;87.40;35.52;;;;;;;-0.63;75.90;101098.27;2184911;81;29262;-68
2020/12/20 02:08:14;;;;;;;89.15;35.92;;;;;;;-0.65;76.02;101092.09;2184853;81;31281;-68
2020/12/20 02:11:17;;;;;;;103.25;42.85;;;;;;;-0.69;76.00;101095.56;2186488;80;33142;-66
2020/12/20 02:14:19;;;;;;;104.38;38.40;;;;;;;-0.70;76.06;101090.30;2191006;80;29598;-67
2020/12/20 02:17:22;;;;;;;92.25;41.35;;;;;;;-0.72;75.92;101095.52;2185004;80;27727;-67
2020/12/20 02:20:25;;;;;;;93.37;40.83;;;;;;;-0.72;75.90;101094.66;2190790;80;28799;-65
2020/12/20 02:23:30;;;;;;;94.20;38.45;;;;;;;-0.76;75.74;101092.44;2223418;80;32109;-68
2020/12/20 02:26:32;;;;;;;92.05;38.05;;;;;;;-0.77;75.72;101093.31;2222406;80;33119;-67
2020/12/20 02:29:35;;;;;;;93.75;41.40;;;;;;;-0.80;75.93;101091.95;2223465;80;28840;-66
2020/12/20 02:32:37;;;;;;;99.37;43.10;;;;;;;-0.82;76.05;101091.92;2217303;80;27627;-67
2020/12/20 02:35:45;;;;;;;88.12;41.10;;;;;;;-0.86;76.10;101087.94;2185424;78;28845;-69
2020/12/20 02:38:47;;;;;;;91.22;39.60;;;;;;;-0.88;76.10;101088.34;2185074;81;31203;-66
2020/12/20 02:41:56;;;;;;;84.40;38.38;;;;;;;-0.89;75.96;101087.48;2186631;80;34047;-66
2020/12/20 02:44:58;;;;;;;90.00;41.65;;;;;;;-0.88;76.03;101081.77;2213605;80;28858;-68
2020/12/20 02:48:01;;;;;;;78.97;36.63;;;;;;;-0.90;76.23;101084.81;2223953;80;27807;-65
2020/12/20 02:51:03;;;;;;;77.95;36.83;;;;;;;-0.90;76.03;101086.13;2222922;80;27999;-68
2020/12/20 02:54:05;;;;;;;62.83;29.65;;;;;;;-0.89;75.95;101080.00;2192939;80;31133;-65
2020/12/20 02:57:08;;;;;;;61.55;28.77;;;;;;;-0.89;76.24;101076.06;2185041;81;33180;-65
2020/12/20 03:00:11;;;;;;;51.85;25.50;;;;;;;-0.92;76.34;101071.66;2185051;81;28856;-66
2020/12/20 03:03:13;;;;;;;43.68;20.92;;;;;;;-0.90;76.55;101064.67;2187146;80;27689;-67
2020/12/20 03:06:16;;;;;;;44.98;23.10;;;;;;;-0.91;76.61;101064.22;2218341;80;28795;-66
2020/12/20 03:09:18;;;;;;;38.60;20.92;;;;;;;-0.89;76.60;101069.07;2221789;80;30344;-67
2020/12/20 03:12:22;;;;;;;35.48;20.43;;;;;;;-0.89;76.77;101066.85;2221253;80;33157;-69
2020/12/20 03:15:25;;;;;;;36.45;21.27;;;;;;;-0.87;76.83;101067.34;2223508;80;28859;-68
2020/12/20 03:18:27;;;;;;;43.55;23.12;;;;;;;-0.86;76.89;101059.90;2223737;80;27733;-68
2020/12/20 03:21:29;;;;;;;41.92;22.20;;;;;;;-0.84;77.02;101062.12;2223853;80;29701;-69
2020/12/20 03:24:31;;;;;;;49.30;22.70;;;;;;;-0.82;77.11;101052.91;2194037;80;31132;-69
2020/12/20 03:27:33;;;;;;;47.25;23.60;;;;;;;-0.77;77.15;101057.34;2184244;81;33964;-68
2020/12/20 03:30:35;;;;;;;48.15;24.60;;;;;;;-0.73;77.08;101063.95;2184270;81;28962;-69
2020/12/20 03:33:38;;;;;;;41.80;23.50;;;;;;;-0.73;77.09;101062.19;2201994;80;27769;-69
2020/12/20 03:36:40;;;;;;;51.13;25.10;;;;;;;-0.68;77.01;101073.64;2223429;80;29720;-68
2020/12/20 03:39:43;;;;;;;46.85;23.50;;;;;;;-0.65;76.96;101070.15;2223868;80;31127;-69
2020/12/20 03:42:46;;;;;;;58.05;24.37;;;;;;;-0.65;76.90;101065.78;2223065;80;34016;-69
2020/12/20 03:45:49;;;;;;;46.18;23.57;;;;;;;-0.64;76.62;101063.60;2197763;80;28856;-70
2020/12/20 03:48:52;;;;;;;43.15;24.92;;;;;;;-0.65;76.37;101067.10;2184780;81;27823;-69
2020/12/20 03:51:55;;;;;;;47.30;23.92;;;;;;;-0.66;76.46;101068.42;2185114;81;28888;-69
2020/12/20 03:54:57;;;;;;;49.30;25.40;;;;;;;-0.68;76.34;101059.17;2209985;80;31207;-68
2020/12/20 03:57:59;;;;;;;52.45;26.07;;;;;;;-0.68;76.43;101063.13;2223846;80;33101;-68
2020/12/20 04:01:01;;;;;;;54.63;28.25;;;;;;;-0.68;76.31;101062.26;2223819;80;29794;-68
2020/12/20 04:04:03;;;;;;;54.65;27.32;;;;;;;-0.70;76.33;101062.22;2221526;80;27708;-68
2020/12/20 04:07:05;;;;;;;49.90;27.17;;;;;;;-0.75;76.37;101057.79;2203240;80;28870;-69
2020/12/20 04:10:08;;;;;;;55.30;26.05;;;;;;;-0.77;76.26;101057.34;2222989;80;31118;-67
2020/12/20 04:13:10;;;;;;;54.15;28.35;;;;;;;-0.80;76.54;101057.75;2216919;80;33101;-65
2020/12/20 04:16:12;;;;;;;52.90;27.37;;;;;;;-0.81;76.89;101059.48;2216354;80;29020;-67
2020/12/20 04:19:15;;;;;;;56.80;29.72;;;;;;;-0.83;76.93;101052.05;2216728;80;27639;-68
2020/12/20 04:22:17;;;;;;;50.33;26.52;;;;;;;-0.81;77.08;101058.62;2216331;80;29737;-67
2020/12/20 04:25:19;;;;;;;51.02;26.60;;;;;;;-0.83;77.27;101055.98;2200597;80;32024;-68
2020/12/20 04:28:22;;;;;;;56.55;26.65;;;;;;;-0.81;77.29;101062.12;2177713;81;33967;-66
2020/12/20 04:31:24;;;;;;;52.88;27.70;;;;;;;-0.79;77.12;101061.70;2193045;80;28929;-67
2020/12/20 04:34:27;;;;;;;47.67;25.97;;;;;;;-0.78;77.16;101061.28;2194345;80;27659;-68
2020/12/20 04:37:29;;;;;;;51.55;26.45;;;;;;;-0.76;77.29;101062.19;2215028;80;28806;-67
2020/12/20 04:40:32;;;;;;;48.65;28.38;;;;;;;-0.73;77.28;101055.61;2216312;80;31171;-68
2020/12/20 04:43:34;;;;;;;54.88;28.17;;;;;;;-0.73;77.36;101054.30;2213983;80;33100;-68
2020/12/20 04:46:38;;;;;;;54.50;26.35;;;;;;;-0.71;77.44;101056.51;2198913;80;29807;-67
2020/12/20 04:49:44;;;;;;;56.13;27.62;;;;;;;-0.71;77.38;101057.83;2186068;80;27686;-68
2020/12/20 04:52:47;;;;;;;55.23;27.82;;;;;;;-0.68;77.34;101052.59;2216408;80;31685;-68
2020/12/20 04:55:50;;;;;;;57.40;28.17;;;;;;;-0.68;77.58;101060.94;2184207;80;30929;-68
2020/12/20 04:58:55;;;;;;;51.92;28.27;;;;;;;-0.70;77.46;101067.48;2147225;81;33172;-68
2020/12/20 05:01:58;;;;;;;51.37;28.00;;;;;;;-0.68;77.55;101072.78;2148946;81;29821;-68
2020/12/20 05:05:00;;;;;;;53.20;28.45;;;;;;;-0.67;77.57;101079.36;2180858;78;27696;-68
2020/12/20 05:08:02;;;;;;;48.35;25.35;;;;;;;-0.65;77.58;101074.09;2177571;81;28807;-68
2020/12/20 05:11:05;;;;;;;46.50;25.20;;;;;;;-0.61;77.49;101071.95;2177658;80;31272;-68
2020/12/20 05:14:10;;;;;;;44.77;23.50;;;;;;;-0.60;77.59;101076.34;2183849;80;34035;-66
2020/12/20 05:17:19;;;;;;;41.60;22.87;;;;;;;-0.58;77.39;101080.33;2154220;81;30107;-69
2020/12/20 05:20:40;;;;;;;43.78;23.67;;;;;;;-0.60;77.55;101078.98;2181289;81;27581;-68
2020/12/20 05:23:43;;;;;;;43.20;23.35;;;;;;;-0.59;77.42;101078.11;2174858;81;29016;-67
2020/12/20 05:26:45;;;;;;;44.18;22.90;;;;;;;-0.59;77.14;101074.16;2184034;80;31218;-68
2020/12/20 05:29:52;;;;;;;38.65;22.22;;;;;;;-0.59;77.07;101075.48;2208956;80;33102;-66
2020/12/20 05:32:54;;;;;;;40.50;22.07;;;;;;;-0.62;77.26;101071.50;2220550;80;30033;-69
2020/12/20 05:36:08;;;;;;;44.13;21.55;;;;;;;-0.62;77.37;101076.77;2218045;80;27724;-68
2020/12/20 05:39:15;;;;;;;36.45;20.97;;;;;;;-0.64;77.44;101076.77;2205932;80;28868;-67
2020/12/20 05:42:17;;;;;;;43.92;27.77;;;;;;;-0.64;77.46;101079.39;2199812;80;31123;-69
2020/12/20 05:45:22;;;;;;;42.40;25.25;;;;;;;-0.63;77.25;101080.26;2217688;80;33087;-69
2020/12/20 05:48:26;;;;;;;40.45;21.07;;;;;;;-0.66;76.97;101078.94;2219595;80;29237;-68
2020/12/20 05:51:28;;;;;;;37.87;20.43;;;;;;;-0.62;76.88;101091.23;2220874;80;27629;-68
2020/12/20 05:54:38;;;;;;;34.30;19.87;;;;;;;-0.64;76.84;101092.97;2220423;80;29243;-69
2020/12/20 05:57:41;;;;;;;42.35;22.10;;;;;;;-0.67;76.67;101096.91;2189489;80;31147;-68
2020/12/20 06:00:45;;;;;;;42.00;21.15;;;;;;;-0.69;76.99;101098.64;2181063;80;33191;-69
2020/12/20 06:03:48;;;;;;;34.92;20.48;;;;;;;-0.69;76.90;101096.88;2181644;81;29268;-67
2020/12/20 06:06:51;;;;;;;31.90;17.40;;;;;;;-0.69;76.67;101107.84;2195478;80;27808;-68
2020/12/20 06:09:58;;;;;;;36.03;20.17;;;;;;;-0.71;76.71;101112.21;2220141;80;28805;-68
2020/12/20 06:13:07;;;;;;;31.57;18.12;;;;;;;-0.71;76.68;101110.45;2181114;80;31631;-65
2020/12/20 06:16:10;;;;;;;37.42;18.40;;;;;;;-0.73;76.55;101112.17;2179758;80;33096;-67
2020/12/20 06:19:14;;;;;;;33.20;17.42;;;;;;;-0.74;76.37;101116.13;2178228;80;29167;-67
2020/12/20 06:22:33;;;;;;;28.00;16.97;;;;;;;-0.77;76.31;101107.33;2176446;81;27658;-66
2020/12/20 06:25:37;;;;;;;30.40;16.25;;;;;;;-0.79;76.40;101109.05;2177722;81;28804;-68
2020/12/20 06:28:40;;;;;;;32.23;17.52;;;;;;;-0.81;76.84;101109.47;2179204;80;31252;-68
2020/12/20 06:31:43;;;;;;;29.02;16.67;;;;;;;-0.80;76.74;101115.63;2177762;81;33090;-68
2020/12/20 06:34:46;;;;;;;29.40;15.80;;;;;;;-0.81;76.47;101113.86;2177801;81;29158;-66
2020/12/20 06:37:48;;;;;;;23.95;14.50;;;;;;;-0.92;76.64;101090.97;2196519;80;27693;-67
2020/12/20 06:40:51;;;;;;;27.95;15.48;;;;;;;-0.84;76.75;101113.41;2183907;80;28014;-68
2020/12/20 06:43:53;;;;;;;29.98;15.93;;;;;;;-0.83;76.83;101115.59;2211852;80;32544;-66
2020/12/20 06:46:55;;;;;;;30.12;17.98;;;;;;;-0.85;76.85;101118.22;2198586;80;33213;-66
2020/12/20 06:49:58;;;;;;;32.05;18.50;;;;;;;-0.83;77.14;101124.80;2191468;80;29166;-68
2020/12/20 06:53:00;;;;;;;26.87;16.50;;;;;;;-0.82;76.78;101122.17;2171093;80;27901;-67
2020/12/20 06:56:07;;;;;;;26.57;16.17;;;;;;;-0.83;76.45;101124.38;2199716;80;29022;-68
2020/12/20 06:59:13;;;;;;;28.55;18.10;;;;;;;-0.84;76.30;101124.34;2192717;80;31340;-68
2020/12/20 07:02:43;;;;;;;33.30;18.37;;;;;;;-0.85;76.30;101123.48;2163392;78;33147;-69
2020/12/20 07:05:46;;;;;;;37.35;20.50;;;;;;;-0.86;76.16;101122.13;2193789;80;29347;-68
2020/12/20 07:08:58;;;;;;;37.60;20.17;;;;;;;-0.88;76.50;101128.70;2192901;80;27723;-68
2020/12/20 07:12:01;;;;;;;42.50;21.57;;;;;;;-0.88;76.78;101123.86;2202779;80;28856;-66
2020/12/20 07:15:04;;;;;;;38.02;20.40;;;;;;;-0.86;76.86;101125.66;2205785;80;32541;-69
2020/12/20 07:18:06;;;;;;;42.90;22.37;;;;;;;-0.84;76.90;101124.34;2204409;80;33169;-68
2020/12/20 07:21:20;;;;;;;40.63;21.33;;;;;;;-0.80;76.95;101127.47;2130116;83;29185;-68
2020/12/20 07:24:31;;;;;;;43.23;24.93;;;;;;;-0.76;76.99;101121.37;2117783;83;27624;-68
2020/12/20 07:27:33;;;;;;;44.23;25.02;;;;;;;-0.73;77.18;101119.20;2149873;82;28817;-69
2020/12/20 07:30:36;;;;;;;45.98;25.17;;;;;;;-0.70;77.14;101127.13;2130958;82;30929;-65
2020/12/20 07:33:39;;;;;;;43.63;25.10;;;;;;;-0.67;77.14;101126.72;2111032;82;34057;-70
2020/12/20 07:36:41;;;;;;;43.45;24.32;;;;;;;-0.62;76.87;101130.70;2125941;82;30115;-69
2020/12/20 07:39:43;;;;;;;52.10;29.52;;;;;;;-0.56;76.77;101130.78;2096175;83;27747;-68
2020/12/20 07:42:45;;;;;;;51.95;28.87;;;;;;;-0.52;76.93;101127.73;2126159;82;28875;-69
2020/12/20 07:45:59;;;;;;;44.42;26.30;;;;;;;-0.46;77.05;101128.67;2137025;82;32077;-70
2020/12/20 07:49:08;;;;;;;49.10;27.90;;;;;;;-0.37;77.08;101120.42;2140277;82;34064;-64
2020/12/20 07:52:11;;;;;;;48.23;27.98;;;;;;;-0.27;76.94;101128.83;2140866;82;29216;-66
2020/12/20 07:55:13;;;;;;;57.35;30.90;;;;;;;-0.17;76.97;101133.33;2138371;82;27849;-69
2020/12/20 07:58:18;;;;;;;59.90;33.00;;;;;;;-0.07;76.98;101143.92;2140142;82;28887;-68
2020/12/20 08:01:20;;;;;;;;;;;;;;;0.03;77.21;101145.74;2137004;82;30969;-69
2020/12/20 08:04:22;;;;;;;61.98;30.97;;;;;;;0.14;77.32;101149.36;2132000;82;33055;-69
2020/12/20 08:07:25;;;;;;;54.30;27.37;;;;;;;0.20;77.49;101145.88;2138254;82;30017;-67
2020/12/20 08:10:27;;;;;;;55.05;29.65;;;;;;;0.24;77.56;101149.41;2137616;81;28131;-67
2020/12/20 08:13:30;;;;;;;60.95;32.67;;;;;;;0.30;77.56;101145.51;2136067;81;28904;-67
2020/12/20 08:16:35;;;;;;;67.25;34.35;;;;;;;0.41;77.70;101153.48;2134371;82;32216;-67
2020/12/20 08:19:37;;;;;;;65.32;35.83;;;;;;;0.51;77.76;101147.38;2137544;82;33112;-67
2020/12/20 08:22:40;;;;;;;65.30;36.30;;;;;;;0.60;77.79;101148.73;2118835;82;29152;-68
2020/12/20 08:25:42;;;;;;;66.25;35.52;;;;;;;0.70;77.81;101152.30;2139119;82;27711;-68
2020/12/20 08:28:44;;;;;;;63.45;34.83;;;;;;;0.77;77.84;101146.62;2130620;82;28803;-68
2020/12/20 08:31:48;;;;;;;64.67;33.95;;;;;;;0.83;77.76;101147.11;2118455;83;30346;-68
2020/12/20 08:34:51;;;;;;;61.30;34.25;;;;;;;0.87;77.64;101152.40;2132568;83;34065;-67
2020/12/20 08:37:58;;;;;;;58.95;33.28;;;;;;;0.94;77.81;101155.04;2129595;82;30106;-67
2020/12/20 08:41:01;;;;;;;59.30;33.25;;;;;;;1.04;77.81;101154.22;2135165;82;27731;-67
2020/12/20 08:44:15;;;;;;;75.83;44.85;;;;;;;1.15;77.93;101155.58;2131064;82;30327;-59
2020/12/20 08:47:20;;;;;;;74.07;42.25;;;;;;;1.28;77.87;101163.07;2137667;82;33410;-58
2020/12/20 08:50:27;;;;;;;42.80;25.43;;;;;;;1.43;77.97;101166.20;2123944;82;33065;-58
2020/12/20 08:53:31;;;;;;;54.67;31.65;;;;;;;1.56;78.09;101167.98;2154156;82;29196;-58
2020/12/20 08:56:33;;;;;;;47.43;25.92;;;;;;;1.67;78.01;101153.47;2123246;82;27881;-58
2020/12/20 08:59:46;;;;;;;49.95;28.32;;;;;;;1.76;77.82;101149.95;2122258;82;28837;-58
2020/12/20 09:02:58;;;;;;;45.67;26.20;;;;;;;1.81;77.77;101152.17;2124169;82;30535;-61
2020/12/20 09:06:13;;;;;;;47.45;24.47;;;;;;;1.89;77.77;101150.39;2127449;82;33531;-58
2020/12/20 09:09:16;;;;;;;44.75;25.77;;;;;;;1.94;77.63;101146.42;2118252;82;30104;-63
2020/12/20 09:12:19;;;;;;;42.00;24.37;;;;;;;2.03;77.63;101147.76;2134494;81;28184;-60
2020/12/20 09:15:35;;;;;;;41.92;23.47;;;;;;;2.13;77.70;101149.95;2163430;81;29033;-63
2020/12/20 09:18:38;;;;;;;47.62;25.90;;;;;;;2.24;77.72;101144.63;2165973;81;30557;-64
2020/12/20 09:21:41;;;;;;;41.58;23.65;;;;;;;2.35;77.70;101145.94;2119460;83;32826;-58
2020/12/20 09:24:47;;;;;;;44.38;23.92;;;;;;;2.44;77.58;101144.61;2127201;83;29269;-58
2020/12/20 09:28:02;;;;;;;74.87;42.23;;;;;;;2.54;77.66;101153.41;2124052;83;27689;-58
2020/12/20 09:31:16;;;;;;;59.88;35.85;;;;;;;2.64;77.64;101147.66;2107380;82;28843;-61
2020/12/20 09:34:18;;;;;;;49.60;26.03;;;;;;;2.72;77.44;101149.81;2124872;83;32461;-58
2020/12/20 09:37:22;;;;;;;45.48;23.95;;;;;;;2.82;77.41;101150.20;2153007;81;33130;-58
2020/12/20 09:40:24;;;;;;;41.92;23.35;;;;;;;2.92;77.20;101145.76;2144942;82;30227;-62
2020/12/20 09:43:27;;;;;;;38.08;22.48;;;;;;;3.00;77.02;101140.00;2159020;81;27648;-62
2020/12/20 09:46:35;;;;;;;44.58;26.05;;;;;;;3.10;76.91;101142.59;2110578;84;28631;-60
2020/12/20 09:49:37;;;;;;;45.88;25.85;;;;;;;3.17;77.03;101142.55;2146914;82;31157;-61
2020/12/20 09:52:39;;;;;;;52.78;29.23;;;;;;;3.27;76.79;101143.84;2106634;84;33855;-59
2020/12/20 09:55:47;;;;;;;46.80;27.02;;;;;;;3.33;76.79;101143.78;2109312;83;29167;-59
2020/12/20 09:58:49;;;;;;;45.55;27.17;;;;;;;3.40;76.74;101144.63;2142388;83;27787;-59
2020/12/20 10:01:52;;;;;;;42.78;26.45;;;;;;;3.46;76.79;101134.89;2142839;82;28829;-58
2020/12/20 10:04:55;;;;;;;37.67;23.98;;;;;;;3.51;76.69;101132.20;2119439;82;31089;-59
2020/12/20 10:07:58;;;;;;;45.20;25.48;;;;;;;3.58;76.60;101131.72;2122640;83;33061;-58
2020/12/20 10:11:00;;;;;;;40.10;23.30;;;;;;;3.62;76.52;101136.11;2125557;83;29237;-60
2020/12/20 10:14:04;;;;;;;35.68;20.65;;;;;;;3.70;76.57;101129.42;2123331;82;27678;-59
2020/12/20 10:17:07;;;;;;;33.55;19.95;;;;;;;3.80;76.41;101131.09;2119347;83;30179;-58
2020/12/20 10:20:09;;;;;;;36.40;20.62;;;;;;;3.89;76.36;101128.82;2109859;81;31780;-56
2020/12/20 10:23:11;;;;;;;28.75;17.80;;;;;;;3.94;76.24;101119.93;2124674;83;34460;-58
2020/12/20 10:26:14;;;;;;;27.90;15.85;;;;;;;4.02;76.31;101113.23;2134037;82;29610;-57
2020/12/20 10:29:18;;;;;;;18.52;10.60;;;;;;;4.11;76.32;101116.24;2116175;83;27742;-57
2020/12/20 10:32:21;;;;;;;;;;;;;;;4.19;76.13;101111.76;2124555;83;28817;-57
2020/12/20 10:35:24;;;;;;;14.10;9.50;;;;;;;4.25;75.84;101116.98;2122449;83;31604;-58
2020/12/20 10:38:26;;;;;;;16.57;10.50;;;;;;;4.31;76.10;101117.36;2135216;82;34004;-58
2020/12/20 10:41:40;;;;;;;11.18;7.85;;;;;;;4.40;76.16;101113.73;2115857;83;30574;-59
2020/12/20 10:44:44;;;;;;;11.53;6.90;;;;;;;4.49;75.98;101121.61;2131104;82;27784;-58
2020/12/20 10:47:48;;;;;;;14.07;9.10;;;;;;;4.59;75.55;101115.75;2129825;82;28835;-59
2020/12/20 10:50:55;;;;;;;14.20;9.20;;;;;;;4.66;75.84;101113.44;2127570;82;31914;-58
2020/12/20 10:53:57;;;;;;;27.50;17.02;;;;;;;4.73;75.61;101108.06;2129825;82;33128;-58
2020/12/20 10:57:01;;;;;;;11.90;7.33;;;;;;;4.79;75.63;101114.17;2128055;82;29197;-58
2020/12/20 11:00:06;;;;;;;14.55;8.35;;;;;;;4.82;75.28;101107.50;2113784;82;27727;-58
2020/12/20 11:03:09;;;;;;;11.65;7.97;;;;;;;4.85;75.11;101114.54;2129117;82;28890;-58
2020/12/20 11:06:19;;;;;;;12.68;8.73;;;;;;;4.89;75.13;101114.04;2142162;82;31209;-59
2020/12/20 11:09:21;;;;;;;11.73;7.35;;;;;;;4.91;75.05;101112.25;2104938;84;35365;-59
2020/12/20 11:12:24;;;;;;;11.48;7.65;;;;;;;4.92;75.02;101109.59;2128456;82;30051;-58
2020/12/20 11:15:26;;;;;;;12.98;8.90;;;;;;;4.95;74.80;101109.56;2139936;82;27641;-59
2020/12/20 11:18:29;;;;;;;12.58;7.85;;;;;;;4.99;74.65;101107.73;2146768;82;28824;-58
2020/12/20 11:21:31;;;;;;;7.95;5.85;;;;;;;5.06;74.71;101101.88;2150040;81;32119;-58
2020/12/20 11:24:34;;;;;;;9.33;6.30;;;;;;;5.11;74.19;101106.69;2177715;81;33118;-58
2020/12/20 11:27:37;;;;;;;9.18;6.00;;;;;;;5.14;73.84;101112.83;2156242;81;29213;-58
2020/12/20 11:30:39;;;;;;;12.65;8.68;;;;;;;5.14;73.93;101107.95;2148373;81;28106;-59
2020/12/20 11:33:43;;;;;;;14.13;9.10;;;;;;;5.17;74.25;101112.80;2146574;82;29893;-58
2020/12/20 11:36:48;;;;;;;22.40;13.25;;;;;;;5.25;74.30;101112.69;2146597;82;31220;-59
2020/12/20 11:39:56;;;;;;;8.98;6.78;;;;;;;5.36;74.24;101116.95;2146082;82;33114;-59
2020/12/20 11:42:58;;;;;;;8.70;6.10;;;;;;;5.37;73.42;101111.63;2146643;82;29177;-59
2020/12/20 11:46:02;;;;;;;10.80;6.97;;;;;;;5.37;73.55;101113.39;2154713;81;27763;-60
2020/12/20 11:49:06;;;;;;;11.97;7.35;;;;;;;5.39;73.47;101106.28;2145883;81;32589;-59
2020/12/20 11:52:09;;;;;;;9.95;6.58;;;;;;;5.43;73.50;101108.00;2150899;81;31339;-59
2020/12/20 11:55:11;;;;;;;17.15;12.15;;;;;;;5.45;73.46;101112.84;2183331;81;33169;-59
2020/12/20 11:58:16;;;;;;;10.40;6.40;;;;;;;5.46;73.15;101107.48;2179236;81;29215;-59
2020/12/20 12:01:27;;;;;;;18.55;9.28;;;;;;;5.46;73.15;101109.28;2146673;82;27667;-59
2020/12/20 12:04:29;;;;;;;11.18;6.03;;;;;;;5.44;72.95;101113.27;2156722;81;28838;-58
2020/12/20 12:07:32;;;;;;;10.38;6.30;;;;;;;5.43;72.75;101114.64;2177331;81;31157;-60
2020/12/20 12:10:42;;;;;;;9.55;5.85;;;;;;;5.42;72.70;101115.55;2148787;81;34092;-58
2020/12/20 12:13:44;;;;;;;12.28;6.95;;;;;;;5.43;72.66;101113.31;2146488;81;29443;-61
2020/12/20 12:16:52;;;;;;;10.40;6.25;;;;;;;5.41;72.74;101105.34;2146634;82;27677;-60
2020/12/20 12:19:55;;;;;;;7.37;5.45;;;;;;;5.44;72.71;101105.77;2146623;82;28841;-59
2020/12/20 12:22:58;;;;;;;11.73;6.45;;;;;;;5.43;72.74;101100.89;2146455;82;31161;-59
2020/12/20 12:26:02;;;;;;;9.08;5.08;;;;;;;5.41;72.47;101102.69;2148539;81;33108;-57
2020/12/20 12:29:06;;;;;;;8.33;5.40;;;;;;;5.42;71.98;101104.45;2174109;81;29341;-59
2020/12/20 12:32:08;;;;;;;8.08;5.60;;;;;;;5.42;72.18;101109.77;2184030;81;27824;-60
2020/12/20 12:35:12;;;;;;;8.28;5.08;;;;;;;5.43;72.18;101111.52;2183272;81;29381;-58
2020/12/20 12:38:14;;;;;;;8.45;4.37;;;;;;;5.43;71.91;101108.86;2149634;81;31911;-59
2020/12/20 12:41:16;;;;;;;7.83;5.42;;;;;;;5.41;71.78;101108.47;2155444;81;33559;-59
2020/12/20 12:44:21;;;;;;;13.60;7.75;;;;;;;5.40;71.87;101109.37;2184117;81;29732;-58
2020/12/20 12:47:23;;;;;;;9.70;6.17;;;;;;;5.39;71.98;101106.28;2184193;81;32829;-57
2020/12/20 12:50:26;;;;;;;9.98;6.05;;;;;;;5.37;71.72;101108.08;2184246;81;28824;-59
2020/12/20 12:53:30;;;;;;;7.30;4.80;;;;;;;5.35;71.65;101111.20;2175031;80;31136;-61
2020/12/20 12:56:34;;;;;;;9.33;5.47;;;;;;;5.30;71.59;101104.17;2156776;81;34053;-65
2020/12/20 12:59:37;;;;;;;9.30;5.45;;;;;;;5.28;71.84;101111.75;2184229;81;29155;-59
2020/12/20 13:02:39;;;;;;;6.55;4.15;;;;;;;5.28;71.79;101103.78;2148253;81;27667;-59
2020/12/20 13:05:42;;;;;;;8.18;5.78;;;;;;;5.29;71.60;101098.89;2146563;82;28006;-60
2020/12/20 13:08:45;;;;;;;19.40;13.70;;;;;;;5.28;71.51;101095.38;2146526;82;32082;-60
2020/12/20 13:11:47;;;;;;;16.02;11.25;;;;;;;5.28;71.37;101097.14;2146152;82;33197;-58
2020/12/20 13:14:51;;;;;;;13.65;7.78;;;;;;;5.26;71.22;101094.95;2147443;81;28080;-59
2020/12/20 13:17:55;;;;;;;13.00;6.42;;;;;;;5.25;71.42;101099.83;2164804;81;28110;-58
2020/12/20 13:20:58;;;;;;;20.35;13.58;;;;;;;5.21;71.18;101092.37;2177552;81;29263;-58
2020/12/20 13:24:01;;;;;;;14.43;8.60;;;;;;;5.18;71.30;101093.73;2155254;81;31168;-62
2020/12/20 13:27:03;;;;;;;28.45;19.55;;;;;;;5.14;71.13;101098.22;2141571;81;33059;-62
2020/12/20 13:30:05;;;;;;;21.90;18.23;;;;;;;5.12;71.30;101096.03;2154743;80;29189;-58
2020/12/20 13:33:08;;;;;;;23.40;17.90;;;;;;;5.08;71.19;101103.61;2146747;82;27690;-60
2020/12/20 13:36:10;;;;;;;10.03;6.65;;;;;;;5.02;71.18;101103.25;2172805;81;28825;-62
2020/12/20 13:39:13;;;;;;;12.93;7.05;;;;;;;4.98;71.01;101101.98;2167198;81;31152;-60
2020/12/20 13:42:16;;;;;;;13.65;8.13;;;;;;;4.95;71.20;101099.37;2176739;81;33998;-60
2020/12/20 13:45:19;;;;;;;28.07;20.30;;;;;;;4.94;71.15;101096.28;2148680;81;30046;-59
2020/12/20 13:48:22;;;;;;;29.10;19.20;;;;;;;4.94;71.25;101097.17;2165490;81;27804;-59
2020/12/20 13:51:25;;;;;;;30.68;19.02;;;;;;;4.93;71.25;101100.73;2146689;82;28848;-59
2020/12/20 13:54:29;;;;;;;8.08;5.78;;;;;;;4.91;71.05;101097.64;2148262;81;32493;-59
2020/12/20 13:57:31;;;;;;;11.03;8.10;;;;;;;4.86;70.70;101095.95;2146814;82;33118;-60
2020/12/20 14:00:36;;;;;;;13.90;8.93;;;;;;;4.80;70.83;101092.04;2147144;80;29180;-59
2020/12/20 14:03:39;;;;;;;13.20;6.10;;;;;;;4.75;70.95;101096.52;2146989;81;27651;-59
2020/12/20 14:06:44;;;;;;;8.15;5.60;;;;;;;4.69;70.88;101093.50;2146897;82;29302;-59